Owen Sound, Canada
Current Conditions -  °F | °C
As of 4:30 AM on Thursday 27 Nov 2014 (Local Time) from CYVV Reporting Station
Broken Clouds Broken Clouds  
Wind Chill: -6°   Ceiling: 5000
Heat Index: -2°   Visibility: 15mi
Dew Point: -5°   Wind: 8mph
Humidity: 80%   Direction: 30°NNE
Pressure: 30.04"   Gusts: NA
Location:  44.56°N, 80.94°W
Report Text: CYVV 270930Z 03007KT 15SM BKN050 M02/M05 A3004 RMK SC5 SLP184
Loading
Personal Weather Stations






























Interactive Weather Map New forecast layout! Learn more

10-Day Weather Forecast

Advertisements
Track Severe Weather on mobile